sensor_id;sensor_type;location;lat;lon;timestamp;pressure;altitude;pressure_sealevel;temperature;humidity
6136;BME280;24008;42.664;23.372;2023-12-20T00:00:29;95084.88;;;-0.62;100.00
6136;BME280;24008;42.664;23.372;2023-12-20T00:02:56;95027.91;;;-0.99;100.00
6136;BME280;24008;42.664;23.372;2023-12-20T00:05:23;95082.81;;;-0.73;100.00
6136;BME280;24008;42.664;23.372;2023-12-20T00:07:50;95078.53;;;-0.70;100.00
6136;BME280;24008;42.664;23.372;2023-12-20T00:10:16;95086.81;;;-0.68;100.00
6136;BME280;24008;42.664;23.372;2023-12-20T00:12:43;95068.38;;;-0.67;100.00
6136;BME280;24008;42.664;23.372;2023-12-20T00:15:11;94991.78;;;-1.15;100.00
6136;BME280;24008;42.664;23.372;2023-12-20T00:17:42;95072.38;;;-0.63;100.00
6136;BME280;24008;42.664;23.372;2023-12-20T00:20:30;94611.69;;;-3.69;100.00
6136;BME280;24008;42.664;23.372;2023-12-20T00:22:57;94884.16;;;-1.79;100.00
6136;BME280;24008;42.664;23.372;2023-12-20T00:25:24;94892.31;;;-1.74;100.00
6136;BME280;24008;42.664;23.372;2023-12-20T00:27:51;95066.59;;;-0.65;100.00
6136;BME280;24008;42.664;23.372;2023-12-20T00:30:19;95042.84;;;-0.77;100.00
6136;BME280;24008;42.664;23.372;2023-12-20T00:32:46;95054.06;;;-0.65;100.00
6136;BME280;24008;42.664;23.372;2023-12-20T00:35:13;95041.38;;;-0.62;100.00
6136;BME280;24008;42.664;23.372;2023-12-20T00:37:39;95045.53;;;-0.61;100.00
6136;BME280;24008;42.664;23.372;2023-12-20T00:40:07;94961.06;;;-1.20;100.00
6136;BME280;24008;42.664;23.372;2023-12-20T00:42:34;95045.81;;;-0.88;100.00
6136;BME280;24008;42.664;23.372;2023-12-20T00:45:01;94965.72;;;-1.31;100.00
6136;BME280;24008;42.664;23.372;2023-12-20T00:47:29;95004.28;;;-0.95;100.00
6136;BME280;24008;42.664;23.372;2023-12-20T00:49:55;95031.38;;;-0.83;100.00
6136;BME280;24008;42.664;23.372;2023-12-20T00:52:22;95029.72;;;-0.84;100.00
6136;BME280;24008;42.664;23.372;2023-12-20T00:54:49;95020.72;;;-0.88;100.00
6136;BME280;24008;42.664;23.372;2023-12-20T00:57:15;95037.41;;;-0.87;100.00
6136;BME280;24008;42.664;23.372;2023-12-20T00:59:42;95029.13;;;-0.89;100.00
6136;BME280;24008;42.664;23.372;2023-12-20T01:02:09;95015.19;;;-0.96;100.00
6136;BME280;24008;42.664;23.372;2023-12-20T01:04:37;95015.84;;;-0.91;100.00
6136;BME280;24008;42.664;23.372;2023-12-20T01:07:03;94973.91;;;-1.08;100.00
6136;BME280;24008;42.664;23.372;2023-12-20T01:09:30;94942.03;;;-1.24;100.00
6136;BME280;24008;42.664;23.372;2023-12-20T01:11:57;94964.78;;;-0.90;100.00
6136;BME280;24008;42.664;23.372;2023-12-20T01:14:23;95010.84;;;-0.53;100.00
6136;BME280;24008;42.664;23.372;2023-12-20T01:16:50;94963.22;;;-0.74;100.00
6136;BME280;24008;42.664;23.372;2023-12-20T01:19:17;95001.56;;;-0.51;100.00
6136;BME280;24008;42.664;23.372;2023-12-20T01:21:45;94992.09;;;-0.46;100.00
6136;BME280;24008;42.664;23.372;2023-12-20T01:24:11;94909.25;;;-1.01;100.00
6136;BME280;24008;42.664;23.372;2023-12-20T01:26:38;94995.78;;;-0.53;100.00
6136;BME280;24008;42.664;23.372;2023-12-20T01:29:05;94948.78;;;-0.87;100.00
6136;BME280;24008;42.664;23.372;2023-12-20T01:31:31;94983.56;;;-0.80;100.00
6136;BME280;24008;42.664;23.372;2023-12-20T01:33:58;94906.06;;;-1.43;100.00
6136;BME280;24008;42.664;23.372;2023-12-20T01:36:25;94951.38;;;-1.28;100.00
6136;BME280;24008;42.664;23.372;2023-12-20T01:38:53;94960.97;;;-1.37;100.00
6136;BME280;24008;42.664;23.372;2023-12-20T01:41:20;94971.72;;;-1.15;100.00
6136;BME280;24008;42.664;23.372;2023-12-20T01:43:47;94965.00;;;-1.15;100.00
6136;BME280;24008;42.664;23.372;2023-12-20T01:46:14;94963.66;;;-1.22;100.00
6136;BME280;24008;42.664;23.372;2023-12-20T01:48:41;94961.16;;;-1.22;100.00
6136;BME280;24008;42.664;23.372;2023-12-20T01:51:08;94952.00;;;-1.23;100.00
6136;BME280;24008;42.664;23.372;2023-12-20T01:53:34;94896.50;;;-1.54;100.00
6136;BME280;24008;42.664;23.372;2023-12-20T01:56:04;94702.78;;;-2.92;100.00
6136;BME280;24008;42.664;23.372;2023-12-20T01:58:31;94913.38;;;-1.58;100.00
6136;BME280;24008;42.664;23.372;2023-12-20T02:00:58;94941.31;;;-1.47;100.00
6136;BME280;24008;42.664;23.372;2023-12-20T02:03:24;94900.94;;;-1.81;100.00
6136;BME280;24008;42.664;23.372;2023-12-20T02:05:51;94819.13;;;-2.41;100.00
6136;BME280;24008;42.664;23.372;2023-12-20T02:08:19;94855.19;;;-2.25;100.00
6136;BME280;24008;42.664;23.372;2023-12-20T02:10:46;94867.50;;;-2.41;100.00
6136;BME280;24008;42.664;23.372;2023-12-20T02:13:14;94940.03;;;-1.97;100.00
6136;BME280;24008;42.664;23.372;2023-12-20T02:15:41;94931.88;;;-2.02;100.00
6136;BME280;24008;42.664;23.372;2023-12-20T02:18:09;94933.19;;;-2.14;100.00
6136;BME280;24008;42.664;23.372;2023-12-20T02:20:35;94816.84;;;-2.90;100.00
6136;BME280;24008;42.664;23.372;2023-12-20T02:23:04;94920.97;;;-2.22;100.00
6136;BME280;24008;42.664;23.372;2023-12-20T02:25:31;94784.50;;;-3.14;100.00
6136;BME280;24008;42.664;23.372;2023-12-20T02:27:57;94869.78;;;-2.57;100.00
6136;BME280;24008;42.664;23.372;2023-12-20T02:30:24;94753.75;;;-3.38;100.00
6136;BME280;24008;42.664;23.372;2023-12-20T02:32:52;94914.16;;;-2.40;100.00
6136;BME280;24008;42.664;23.372;2023-12-20T02:35:19;94910.94;;;-2.42;100.00
6136;BME280;24008;42.664;23.372;2023-12-20T02:37:45;94824.97;;;-3.05;100.00
6136;BME280;24008;42.664;23.372;2023-12-20T02:40:13;94909.13;;;-2.60;100.00
6136;BME280;24008;42.664;23.372;2023-12-20T02:42:40;94764.78;;;-3.44;100.00
6136;BME280;24008;42.664;23.372;2023-12-20T02:45:07;94912.75;;;-2.67;100.00
6136;BME280;24008;42.664;23.372;2023-12-20T02:47:34;94861.94;;;-2.91;100.00
6136;BME280;24008;42.664;23.372;2023-12-20T02:50:01;94768.25;;;-3.48;100.00
6136;BME280;24008;42.664;23.372;2023-12-20T02:52:29;94841.91;;;-3.13;100.00
6136;BME280;24008;42.664;23.372;2023-12-20T02:54:55;94896.97;;;-2.69;100.00
6136;BME280;24008;42.664;23.372;2023-12-20T02:57:23;94899.47;;;-2.69;100.00
6136;BME280;24008;42.664;23.372;2023-12-20T02:59:50;94725.13;;;-3.75;100.00
6136;BME280;24008;42.664;23.372;2023-12-20T03:02:17;94836.84;;;-3.11;100.00
6136;BME280;24008;42.664;23.372;2023-12-20T03:04:43;94859.78;;;-3.00;100.00
6136;BME280;24008;42.664;23.372;2023-12-20T03:07:10;94838.94;;;-3.22;100.00
6136;BME280;24008;42.664;23.372;2023-12-20T03:09:37;94861.91;;;-3.13;100.00
6136;BME280;24008;42.664;23.372;2023-12-20T03:12:04;94899.78;;;-3.00;100.00
6136;BME280;24008;42.664;23.372;2023-12-20T03:14:32;94878.13;;;-3.23;100.00
6136;BME280;24008;42.664;23.372;2023-12-20T03:16:59;94861.06;;;-3.35;100.00
6136;BME280;24008;42.664;23.372;2023-12-20T03:19:26;94901.97;;;-3.14;100.00
6136;BME280;24008;42.664;23.372;2023-12-20T03:21:52;94892.78;;;-3.14;100.00
6136;BME280;24008;42.664;23.372;2023-12-20T03:24:19;94890.06;;;-3.08;100.00
6136;BME280;24008;42.664;23.372;2023-12-20T03:26:46;94745.75;;;-3.93;100.00
6136;BME280;24008;42.664;23.372;2023-12-20T03:29:12;94884.25;;;-3.08;100.00
6136;BME280;24008;42.664;23.372;2023-12-20T03:31:40;94876.03;;;-3.12;100.00
6136;BME280;24008;42.664;23.372;2023-12-20T03:34:07;94872.16;;;-2.97;100.00
6136;BME280;24008;42.664;23.372;2023-12-20T03:36:34;94847.00;;;-3.14;100.00
6136;BME280;24008;42.664;23.372;2023-12-20T03:39:00;94867.22;;;-2.99;100.00
6136;BME280;24008;42.664;23.372;2023-12-20T03:41:27;94817.22;;;-3.44;100.00
6136;BME280;24008;42.664;23.372;2023-12-20T03:43:54;94858.31;;;-3.06;100.00
6136;BME280;24008;42.664;23.372;2023-12-20T03:46:20;94873.94;;;-3.01;100.00
6136;BME280;24008;42.664;23.372;2023-12-20T03:48:48;94796.78;;;-3.53;100.00
6136;BME280;24008;42.664;23.372;2023-12-20T03:51:15;94829.00;;;-3.24;100.00
6136;BME280;24008;42.664;23.372;2023-12-20T03:53:42;94866.28;;;-2.96;100.00
6136;BME280;24008;42.664;23.372;2023-12-20T03:56:08;94802.31;;;-3.45;100.00
6136;BME280;24008;42.664;23.372;2023-12-20T03:58:35;94834.41;;;-3.13;100.00
6136;BME280;24008;42.664;23.372;2023-12-20T04:01:02;94856.94;;;-2.91;100.00
6136;BME280;24008;42.664;23.372;2023-12-20T04:03:29;94858.38;;;-2.85;100.00
6136;BME280;24008;42.664;23.372;2023-12-20T04:05:57;94853.97;;;-2.79;100.00
6136;BME280;24008;42.664;23.372;2023-12-20T04:08:23;94851.66;;;-2.83;100.00
6136;BME280;24008;42.664;23.372;2023-12-20T04:10:50;94828.38;;;-3.07;100.00
6136;BME280;24008;42.664;23.372;2023-12-20T04:13:16;94853.63;;;-2.92;100.00
6136;BME280;24008;42.664;23.372;2023-12-20T04:15:43;94807.25;;;-3.22;100.00
6136;BME280;24008;42.664;23.372;2023-12-20T04:18:10;94823.88;;;-3.21;100.00
6136;BME280;24008;42.664;23.372;2023-12-20T04:20:36;94777.69;;;-3.33;100.00
6136;BME280;24008;42.664;23.372;2023-12-20T04:23:05;94845.47;;;-2.97;100.00
6136;BME280;24008;42.664;23.372;2023-12-20T04:25:31;94838.84;;;-2.98;100.00
6136;BME280;24008;42.664;23.372;2023-12-20T04:27:58;94842.41;;;-3.03;100.00
6136;BME280;24008;42.664;23.372;2023-12-20T04:30:24;94756.81;;;-3.53;100.00
6136;BME280;24008;42.664;23.372;2023-12-20T04:32:51;94824.75;;;-3.00;100.00
6136;BME280;24008;42.664;23.372;2023-12-20T04:35:18;94653.94;;;-4.08;100.00
6136;BME280;24008;42.664;23.372;2023-12-20T04:37:43;94824.13;;;-3.05;100.00
6136;BME280;24008;42.664;23.372;2023-12-20T04:40:11;94778.78;;;-3.40;100.00
6136;BME280;24008;42.664;23.372;2023-12-20T04:42:38;94788.84;;;-3.41;100.00
6136;BME280;24008;42.664;23.372;2023-12-20T04:45:06;94825.22;;;-3.34;100.00
6136;BME280;24008;42.664;23.372;2023-12-20T04:47:32;94794.63;;;-3.63;100.00
6136;BME280;24008;42.664;23.372;2023-12-20T04:49:59;94824.63;;;-3.41;100.00
6136;BME280;24008;42.664;23.372;2023-12-20T04:52:26;94818.72;;;-3.38;100.00
6136;BME280;24008;42.664;23.372;2023-12-20T04:54:52;94730.78;;;-3.93;100.00
6136;BME280;24008;42.664;23.372;2023-12-20T04:57:21;94746.22;;;-3.83;100.00
6136;BME280;24008;42.664;23.372;2023-12-20T04:59:48;94818.09;;;-3.45;100.00
6136;BME280;24008;42.664;23.372;2023-12-20T05:02:14;94687.22;;;-4.31;100.00
6136;BME280;24008;42.664;23.372;2023-12-20T05:04:41;94807.28;;;-3.45;100.00
6136;BME280;24008;42.664;23.372;2023-12-20T05:07:08;94599.09;;;-4.78;100.00
6136;BME280;24008;42.664;23.372;2023-12-20T05:09:35;94814.84;;;-3.47;100.00
6136;BME280;24008;42.664;23.372;2023-12-20T05:12:02;94775.75;;;-3.71;100.00
6136;BME280;24008;42.664;23.372;2023-12-20T05:14:31;94812.19;;;-3.42;100.00
6136;BME280;24008;42.664;23.372;2023-12-20T05:16:58;94833.84;;;-3.43;100.00
6136;BME280;24008;42.664;23.372;2023-12-20T05:19:25;94477.59;;;-5.43;100.00
6136;BME280;24008;42.664;23.372;2023-12-20T05:21:52;94736.34;;;-3.86;100.00
6136;BME280;24008;42.664;23.372;2023-12-20T05:24:18;94708.31;;;-3.93;100.00
6136;BME280;24008;42.664;23.372;2023-12-20T05:26:45;94801.03;;;-3.34;100.00
6136;BME280;24008;42.664;23.372;2023-12-20T05:29:11;94793.47;;;-3.32;100.00
6136;BME280;24008;42.664;23.372;2023-12-20T05:31:39;94790.97;;;-3.32;100.00
6136;BME280;24008;42.664;23.372;2023-12-20T05:34:06;94781.75;;;-3.30;100.00
6136;BME280;24008;42.664;23.372;2023-12-20T05:36:33;94696.59;;;-3.91;100.00
6136;BME280;24008;42.664;23.372;2023-12-20T05:39:00;94788.38;;;-3.29;100.00
6136;BME280;24008;42.664;23.372;2023-12-20T05:41:26;94755.69;;;-3.46;100.00
6136;BME280;24008;42.664;23.372;2023-12-20T05:43:53;94792.38;;;-3.25;100.00
6136;BME280;24008;42.664;23.372;2023-12-20T05:46:20;94793.94;;;-3.22;100.00
6136;BME280;24008;42.664;23.372;2023-12-20T05:48:48;94713.94;;;-3.65;100.00
6136;BME280;24008;42.664;23.372;2023-12-20T05:51:15;94769.88;;;-3.25;100.00
6136;BME280;24008;42.664;23.372;2023-12-20T05:53:41;94782.78;;;-3.14;100.00
6136;BME280;24008;42.664;23.372;2023-12-20T05:56:09;94762.28;;;-3.22;100.00
6136;BME280;24008;42.664;23.372;2023-12-20T05:58:36;94705.16;;;-3.75;100.00
6136;BME280;24008;42.664;23.372;2023-12-20T06:01:04;94639.38;;;-3.97;100.00
6136;BME280;24008;42.664;23.372;2023-12-20T06:03:31;94709.25;;;-3.50;100.00
6136;BME280;24008;42.664;23.372;2023-12-20T06:05:59;94767.09;;;-3.17;100.00
6136;BME280;24008;42.664;23.372;2023-12-20T06:08:26;94768.75;;;-3.16;100.00
6136;BME280;24008;42.664;23.372;2023-12-20T06:10:53;94733.34;;;-3.28;100.00
6136;BME280;24008;42.664;23.372;2023-12-20T06:13:19;94742.72;;;-3.12;100.00
6136;BME280;24008;42.664;23.372;2023-12-20T06:15:46;94678.25;;;-3.46;100.00
6136;BME280;24008;42.664;23.372;2023-12-20T06:18:12;94760.34;;;-2.94;100.00
6136;BME280;24008;42.664;23.372;2023-12-20T06:20:39;94691.19;;;-3.37;100.00
6136;BME280;24008;42.664;23.372;2023-12-20T06:23:09;94784.19;;;-2.85;100.00
6136;BME280;24008;42.664;23.372;2023-12-20T06:25:36;94772.47;;;-2.84;100.00
6136;BME280;24008;42.664;23.372;2023-12-20T06:28:03;94637.38;;;-3.66;100.00
6136;BME280;24008;42.664;23.372;2023-12-20T06:30:30;94740.91;;;-2.87;100.00
6136;BME280;24008;42.664;23.372;2023-12-20T06:32:58;94734.41;;;-2.91;100.00
6136;BME280;24008;42.664;23.372;2023-12-20T06:35:25;94766.63;;;-2.63;100.00
6136;BME280;24008;42.664;23.372;2023-12-20T06:37:51;94765.53;;;-2.56;100.00
6136;BME280;24008;42.664;23.372;2023-12-20T06:40:19;94724.84;;;-2.81;100.00
6136;BME280;24008;42.664;23.372;2023-12-20T06:42:46;94618.06;;;-3.40;100.00
6136;BME280;24008;42.664;23.372;2023-12-20T06:45:13;94537.00;;;-4.17;100.00
6136;BME280;24008;42.664;23.372;2023-12-20T06:47:39;94768.28;;;-2.42;100.00
6136;BME280;24008;42.664;23.372;2023-12-20T06:50:06;94639.09;;;-3.04;100.00
6136;BME280;24008;42.664;23.372;2023-12-20T06:52:33;94749.00;;;-2.20;100.00
6136;BME280;24008;42.664;23.372;2023-12-20T06:55:00;94694.44;;;-2.52;100.00
6136;BME280;24008;42.664;23.372;2023-12-20T06:57:29;94740.44;;;-2.15;100.00
6136;BME280;24008;42.664;23.372;2023-12-20T06:59:56;94751.72;;;-2.05;100.00
6136;BME280;24008;42.664;23.372;2023-12-20T07:02:23;94742.31;;;-2.00;100.00
6136;BME280;24008;42.664;23.372;2023-12-20T07:04:49;94743.25;;;-2.03;100.00
6136;BME280;24008;42.664;23.372;2023-12-20T07:07:16;94653.41;;;-2.48;100.00
6136;BME280;24008;42.664;23.372;2023-12-20T07:09:43;94738.34;;;-1.67;100.00
6136;BME280;24008;42.664;23.372;2023-12-20T07:12:09;94705.16;;;-1.72;100.00
6136;BME280;24008;42.664;23.372;2023-12-20T07:14:37;94706.50;;;-1.46;100.00
6136;BME280;24008;42.664;23.372;2023-12-20T07:17:04;94737.97;;;-1.22;100.00
6136;BME280;24008;42.664;23.372;2023-12-20T07:19:33;94731.41;;;-1.24;100.00
6136;BME280;24008;42.664;23.372;2023-12-20T07:21:59;94699.81;;;-1.28;100.00
6136;BME280;24008;42.664;23.372;2023-12-20T07:24:26;94661.59;;;-1.51;100.00
6136;BME280;24008;42.664;23.372;2023-12-20T07:26:52;94722.13;;;-1.05;100.00
6136;BME280;24008;42.664;23.372;2023-12-20T07:29:19;94692.72;;;-1.37;100.00
6136;BME280;24008;42.664;23.372;2023-12-20T07:31:47;94654.50;;;-1.60;100.00
6136;BME280;24008;42.664;23.372;2023-12-20T07:34:14;94693.03;;;-1.26;100.00
6136;BME280;24008;42.664;23.372;2023-12-20T07:36:40;94687.97;;;-1.25;100.00
6136;BME280;24008;42.664;23.372;2023-12-20T07:39:07;94621.53;;;-1.69;100.00
6136;BME280;24008;42.664;23.372;2023-12-20T07:41:34;94699.69;;;-1.25;100.00
6136;BME280;24008;42.664;23.372;2023-12-20T07:44:01;94672.38;;;-1.49;100.00
6136;BME280;24008;42.664;23.372;2023-12-20T07:46:27;94734.16;;;-0.94;100.00
6136;BME280;24008;42.664;23.372;2023-12-20T07:48:56;94680.19;;;-1.37;100.00
6136;BME280;24008;42.664;23.372;2023-12-20T07:51:22;94725.19;;;-0.98;100.00
6136;BME280;24008;42.664;23.372;2023-12-20T07:53:49;94689.34;;;-1.19;100.00
6136;BME280;24008;42.664;23.372;2023-12-20T07:56:16;94706.63;;;-0.96;100.00
6136;BME280;24008;42.664;23.372;2023-12-20T07:58:43;94716.53;;;-0.93;100.00
6136;BME280;24008;42.664;23.372;2023-12-20T08:01:10;94714.63;;;-0.88;100.00
6136;BME280;24008;42.664;23.372;2023-12-20T08:03:37;94714.47;;;-1.02;100.00
6136;BME280;24008;42.664;23.372;2023-12-20T08:06:05;94641.59;;;-1.33;100.00
6136;BME280;24008;42.664;23.372;2023-12-20T08:08:32;94715.81;;;-0.78;100.00
6136;BME280;24008;42.664;23.372;2023-12-20T08:10:59;94701.19;;;-0.52;100.00
6136;BME280;24008;42.664;23.372;2023-12-20T08:13:26;94670.41;;;-0.56;100.00
6136;BME280;24008;42.664;23.372;2023-12-20T08:15:53;94702.25;;;-0.23;100.00
6136;BME280;24008;42.664;23.372;2023-12-20T08:18:21;94651.34;;;-0.43;100.00
6136;BME280;24008;42.664;23.372;2023-12-20T08:20:47;94670.31;;;-0.37;100.00
6136;BME280;24008;42.664;23.372;2023-12-20T08:23:16;94504.72;;;-1.37;100.00
6136;BME280;24008;42.664;23.372;2023-12-20T08:25:43;94694.00;;;-0.10;100.00
6136;BME280;24008;42.664;23.372;2023-12-20T08:28:09;94691.47;;;0.08;100.00
6136;BME280;24008;42.664;23.372;2023-12-20T08:30:36;94696.16;;;0.14;100.00
6136;BME280;24008;42.664;23.372;2023-12-20T08:33:03;94681.97;;;0.28;100.00
6136;BME280;24008;42.664;23.372;2023-12-20T08:35:30;94674.44;;;0.28;100.00
6136;BME280;24008;42.664;23.372;2023-12-20T08:37:56;94678.97;;;0.38;100.00
6136;BME280;24008;42.664;23.372;2023-12-20T08:40:24;94672.59;;;0.48;100.00
6136;BME280;24008;42.664;23.372;2023-12-20T08:42:51;94665.34;;;0.57;100.00
6136;BME280;24008;42.664;23.372;2023-12-20T08:45:18;94661.63;;;0.49;100.00
6136;BME280;24008;42.664;23.372;2023-12-20T08:47:44;94653.59;;;0.42;100.00
6136;BME280;24008;42.664;23.372;2023-12-20T08:50:11;94660.66;;;0.20;100.00
6136;BME280;24008;42.664;23.372;2023-12-20T08:52:38;94659.34;;;0.13;100.00
6136;BME280;24008;42.664;23.372;2023-12-20T08:55:06;94624.00;;;-0.16;100.00
6136;BME280;24008;42.664;23.372;2023-12-20T08:57:34;94625.44;;;-0.12;100.00
6136;BME280;24008;42.664;23.372;2023-12-20T09:00:01;94617.22;;;-0.14;100.00
6136;BME280;24008;42.664;23.372;2023-12-20T09:02:28;94653.19;;;0.03;100.00
6136;BME280;24008;42.664;23.372;2023-12-20T09:04:55;94641.63;;;0.00;100.00
6136;BME280;24008;42.664;23.372;2023-12-20T09:07:22;94634.56;;;0.07;100.00
6136;BME280;24008;42.664;23.372;2023-12-20T09:09:49;94586.47;;;-0.19;100.00
6136;BME280;24008;42.664;23.372;2023-12-20T09:12:17;94620.94;;;0.11;100.00
6136;BME280;24008;42.664;23.372;2023-12-20T09:14:45;94552.13;;;-0.18;100.00
6136;BME280;24008;42.664;23.372;2023-12-20T09:17:12;94588.03;;;0.15;100.00
6136;BME280;24008;42.664;23.372;2023-12-20T09:19:39;94589.63;;;0.16;100.00
6136;BME280;24008;42.664;23.372;2023-12-20T09:22:06;94547.84;;;-0.01;100.00
6136;BME280;24008;42.664;23.372;2023-12-20T09:24:33;94570.75;;;0.25;100.00
6136;BME280;24008;42.664;23.372;2023-12-20T09:27:01;94585.28;;;0.20;100.00
6136;BME280;24008;42.664;23.372;2023-12-20T09:29:28;94289.66;;;-1.47;100.00
6136;BME280;24008;42.664;23.372;2023-12-20T09:31:56;94565.56;;;0.28;100.00
6136;BME280;24008;42.664;23.372;2023-12-20T09:34:24;94564.66;;;0.13;100.00
6136;BME280;24008;42.664;23.372;2023-12-20T09:36:51;94560.72;;;0.09;100.00
6136;BME280;24008;42.664;23.372;2023-12-20T09:39:18;94542.88;;;0.14;100.00
6136;BME280;24008;42.664;23.372;2023-12-20T09:42:00;94533.59;;;0.30;100.00
6136;BME280;24008;42.664;23.372;2023-12-20T09:44:27;94547.63;;;0.34;100.00
6136;BME280;24008;42.664;23.372;2023-12-20T09:46:56;94493.13;;;0.05;100.00
6136;BME280;24008;42.664;23.372;2023-12-20T09:49:25;94539.22;;;0.35;100.00
6136;BME280;24008;42.664;23.372;2023-12-20T09:51:54;94497.00;;;0.40;100.00
6136;BME280;24008;42.664;23.372;2023-12-20T09:54:21;94517.94;;;0.70;100.00
6136;BME280;24008;42.664;23.372;2023-12-20T09:56:48;94524.97;;;0.94;100.00
6136;BME280;24008;42.664;23.372;2023-12-20T09:59:15;94523.91;;;1.26;100.00
6136;BME280;24008;42.664;23.372;2023-12-20T10:01:42;94518.28;;;1.64;100.00
6136;BME280;24008;42.664;23.372;2023-12-20T10:04:12;94365.34;;;0.98;100.00
6136;BME280;24008;42.664;23.372;2023-12-20T10:06:40;94526.41;;;2.23;98.85
6136;BME280;24008;42.664;23.372;2023-12-20T10:09:06;94451.28;;;1.88;95.88
6136;BME280;24008;42.664;23.372;2023-12-20T10:11:35;94475.13;;;2.09;94.43
6136;BME280;24008;42.664;23.372;2023-12-20T10:14:03;94492.56;;;2.39;93.10
6136;BME280;24008;42.664;23.372;2023-12-20T10:16:30;94462.31;;;2.52;92.35
6136;BME280;24008;42.664;23.372;2023-12-20T10:18:58;94468.19;;;2.65;90.36
6136;BME280;24008;42.664;23.372;2023-12-20T10:21:26;94486.16;;;3.24;89.07
6136;BME280;24008;42.664;23.372;2023-12-20T10:23:53;94438.19;;;3.24;88.22
6136;BME280;24008;42.664;23.372;2023-12-20T10:26:20;94448.56;;;3.32;86.92
6136;BME280;24008;42.664;23.372;2023-12-20T10:28:50;94443.19;;;3.37;85.74
6136;BME280;24008;42.664;23.372;2023-12-20T10:31:29;94435.72;;;3.35;84.95
6136;BME280;24008;42.664;23.372;2023-12-20T10:33:57;94417.59;;;3.41;85.30
6136;BME280;24008;42.664;23.372;2023-12-20T10:36:27;94419.09;;;3.07;83.99
6136;BME280;24008;42.664;23.372;2023-12-20T10:38:54;94356.47;;;2.12;85.09
6136;BME280;24008;42.664;23.372;2023-12-20T10:41:25;94450.03;;;2.98;86.16
6136;BME280;24008;42.664;23.372;2023-12-20T10:43:54;94444.34;;;3.07;86.99
6136;BME280;24008;42.664;23.372;2023-12-20T10:46:21;94364.03;;;2.63;86.94
6136;BME280;24008;42.664;23.372;2023-12-20T10:48:50;94421.94;;;3.03;87.16
6136;BME280;24008;42.664;23.372;2023-12-20T10:51:18;94404.41;;;2.88;88.49
6136;BME280;24008;42.664;23.372;2023-12-20T10:53:47;94400.13;;;3.02;89.37
6136;BME280;24008;42.664;23.372;2023-12-20T10:56:16;94375.75;;;2.77;87.86
6136;BME280;24008;42.664;23.372;2023-12-20T10:58:43;94419.63;;;3.00;87.88
6136;BME280;24008;42.664;23.372;2023-12-20T11:01:12;94387.03;;;2.71;87.77
6136;BME280;24008;42.664;23.372;2023-12-20T11:03:43;94324.91;;;2.20;87.94
6136;BME280;24008;42.664;23.372;2023-12-20T11:06:22;94321.38;;;2.09;88.55
6136;BME280;24008;42.664;23.372;2023-12-20T11:08:59;94404.31;;;2.77;89.89
6136;BME280;24008;42.664;23.372;2023-12-20T11:11:38;94327.94;;;2.25;89.59
6136;BME280;24008;42.664;23.372;2023-12-20T11:14:15;94394.31;;;2.76;89.91
6136;BME280;24008;42.664;23.372;2023-12-20T11:16:43;94402.78;;;2.62;90.14
6136;BME280;24008;42.664;23.372;2023-12-20T11:19:11;94373.63;;;2.58;90.69
6136;BME280;24008;42.664;23.372;2023-12-20T11:21:40;94380.00;;;2.64;90.85
6136;BME280;24008;42.664;23.372;2023-12-20T11:24:09;94371.69;;;2.74;91.48
6136;BME280;24008;42.664;23.372;2023-12-20T11:26:36;94374.94;;;2.76;91.30
6136;BME280;24008;42.664;23.372;2023-12-20T11:29:33;94339.84;;;2.48;91.49
6136;BME280;24008;42.664;23.372;2023-12-20T11:32:27;94354.75;;;2.76;93.23
6136;BME280;24008;42.664;23.372;2023-12-20T11:34:55;94304.13;;;2.41;92.48
6136;BME280;24008;42.664;23.372;2023-12-20T11:37:28;94334.34;;;2.54;92.93
6136;BME280;24008;42.664;23.372;2023-12-20T11:40:00;94338.13;;;2.48;92.45
6136;BME280;24008;42.664;23.372;2023-12-20T11:42:27;94328.13;;;2.47;93.11
6136;BME280;24008;42.664;23.372;2023-12-20T11:44:55;94090.50;;;0.82;92.95
6136;BME280;24008;42.664;23.372;2023-12-20T11:47:22;94324.50;;;2.26;93.78
6136;BME280;24008;42.664;23.372;2023-12-20T11:49:49;94315.44;;;2.23;94.59
6136;BME280;24008;42.664;23.372;2023-12-20T11:52:16;94242.63;;;1.55;95.25
6136;BME280;24008;42.664;23.372;2023-12-20T11:54:43;94298.38;;;2.01;95.97
6136;BME280;24008;42.664;23.372;2023-12-20T11:57:11;94304.13;;;2.03;97.23
6136;BME280;24008;42.664;23.372;2023-12-20T11:59:38;94283.16;;;2.15;98.00
6136;BME280;24008;42.664;23.372;2023-12-20T12:02:05;94221.06;;;1.76;98.29
6136;BME280;24008;42.664;23.372;2023-12-20T12:04:32;94253.63;;;2.05;98.48
6136;BME280;24008;42.664;23.372;2023-12-20T12:06:58;94259.56;;;2.29;98.29
6136;BME280;24008;42.664;23.372;2023-12-20T12:09:25;94234.75;;;2.10;98.28
6136;BME280;24008;42.664;23.372;2023-12-20T12:11:52;94268.69;;;2.43;97.49
6136;BME280;24008;42.664;23.372;2023-12-20T12:14:20;94264.78;;;2.51;97.35
6136;BME280;24008;42.664;23.372;2023-12-20T12:16:46;94261.22;;;2.54;96.87
6136;BME280;24008;42.664;23.372;2023-12-20T12:19:21;94247.81;;;2.53;96.29
6136;BME280;24008;42.664;23.372;2023-12-20T12:21:48;94253.22;;;2.73;97.13
6136;BME280;24008;42.664;23.372;2023-12-20T12:24:16;94253.38;;;2.82;96.45
6136;BME280;24008;42.664;23.372;2023-12-20T12:26:50;94247.00;;;2.89;95.88
6136;BME280;24008;42.664;23.372;2023-12-20T12:29:16;94242.00;;;3.01;95.51
6136;BME280;24008;42.664;23.372;2023-12-20T12:31:45;94245.59;;;3.09;94.96
6136;BME280;24008;42.664;23.372;2023-12-20T12:34:11;94208.97;;;3.04;93.91
6136;BME280;24008;42.664;23.372;2023-12-20T12:36:39;94225.56;;;3.19;93.58
6136;BME280;24008;42.664;23.372;2023-12-20T12:39:06;94239.16;;;3.40;92.58
6136;BME280;24008;42.664;23.372;2023-12-20T12:41:33;94238.03;;;3.44;91.74
6136;BME280;24008;42.664;23.372;2023-12-20T12:43:59;94229.94;;;3.63;92.20
6136;BME280;24008;42.664;23.372;2023-12-20T12:46:26;94232.59;;;3.61;90.22
6136;BME280;24008;42.664;23.372;2023-12-20T12:48:54;94215.78;;;3.49;89.59
6136;BME280;24008;42.664;23.372;2023-12-20T12:51:21;94230.47;;;3.44;90.05
6136;BME280;24008;42.664;23.372;2023-12-20T12:53:47;94234.34;;;3.37;90.71
6136;BME280;24008;42.664;23.372;2023-12-20T12:56:15;94209.00;;;3.15;91.26